FT SMITH REGL (KFSM) Information & Weather

WARNING: the data listed below is for informational purposes only and should be confirmed from official sources. Data presented here on this page may be out of date, incomplete or wrong.

Name: FT SMITH REGL
Identifier: KFSM

Coord: 35.3366N 94.3674W
Var: 2°E

Country: United States
Municipality: FT SMITH, AR
Time Zone: (GMT-06:00) America/Chicago

Station Elevation: 469 ft
Pressure Altitude: 506 ft
Density Altitude: 2452 ft
Freezing Level: 14610 ft

Civil Twilight
Morning: 10:36 UTC  (04:36 local)
Evening: 02:05 UTC  (20:05 local)

Flight Category: VFR (38 minutes ago)

METAR KFSM 021553Z 26014KT 10SM CLR 28/21 A2988 RMK AO2 SLP111 T02830206= [toggle past 4 hours]

TAF AMD KFSM 021201Z 0212/0312 24010KT P6SM VCTS SCT060CB BKN120 FM021400 23012KT P6SM BKN060 FM021800 24013KT P6SM SCT050 BKN120 FM022100 26012KT P6SM VCTS SCT030 BKN050CB PROB30 0221/0302 4SM TSRA BKN030CB FM030300 23006KT P6SM VCTS BKN060CB BKN120=

Upper Winds

Source   Valid 375 1000 2000 2500 3000 5000 6000 8000 10000 12000 14000 16000 18000 21000 24000 26000 30000 34000 39000 44000 52000 60000
GFS 0215/0218 2512+30 2514+28 2521+26 2628+24 2633+22 2841+21 2836+17 2829+14 2725+10 2728+05 2731+01 2828-02 3023-06 3121-12 3228-17 3231-24 3231-32 3240-43 3248-55 3225-68 3315-65 0805-62

SIGMET/AIRMET

None within 25nm.

PIREP

None within 25nm.

NOTAM

None within 25nm.

Runway Data

Frequencies

Nearby Airports

Nearby Navaids